Kamikawa Maru — JG5687 — position and weather

sailwx.info

Track history (hours):
 
Tides and Currents Weather Stations Pressure Air Temp Water Temp Dewpoint Dewpoint Depression Visibility Wind Speed Wind Dir Waves Ship Positions

Kamikawa Maru

Last reported at 2017-Jan-22 08:32 UTC. Time now 2017-Jan-23 14:55 UTC.
Position N 35°03' E 139°39'.

Length 162 m; draft 6.8 m.

Type: Cargo ship. MMSI: 431101012.

Date/timePositionNaut miles runAvg speedWind from/ knotsBaromVisibWave heightAir tempDewpointWater temp
2017-Jan-22 08:32N 35°03' E 139°39'1414.9
2017-Jan-22 07:34N 35°16' E 139°45'1313.4
2017-Jan-22 06:34N 35°29' E 139°50'10 8.5
2017-Jan-22 05:25N 35°38' E 139°46'0 0.0
2017-Jan-22 04:31N 35°38' E 139°46'0 0.0
2017-Jan-22 03:31N 35°38' E 139°46'0 0.0
2017-Jan-22 02:28N 35°38' E 139°46'0 0.0
2017-Jan-22 01:28N 35°38' E 139°46'0 0.0
2017-Jan-22 00:25N 35°38' E 139°46'0 0.0
2017-Jan-21 23:33N 35°38' E 139°46'1211.9
2017-Jan-21 22:33N 35°26' E 139°49'1211.8
2017-Jan-21 21:33N 35°15' E 139°47'  
2017-Jan-17 11:31N 35°00' E 139°42'1616.6
2017-Jan-17 10:33N 35°16' E 139°45'1313.3
2017-Jan-17 09:33N 35°29' E 139°51'10 9.7
2017-Jan-17 08:31N 35°38' E 139°46'0 0.0
2017-Jan-17 07:25N 35°38' E 139°46'0 0.1
2017-Jan-17 06:31N 35°38' E 139°46'0 0.0
2017-Jan-17 05:28N 35°38' E 139°46'0 0.0
2017-Jan-17 04:22N 35°38' E 139°46'0 0.0
2017-Jan-17 03:31N 35°38' E 139°46'0 0.0
2017-Jan-17 02:31N 35°38' E 139°46'0 0.0
2017-Jan-17 01:31N 35°38' E 139°46'0 0.0
2017-Jan-17 00:28N 35°38' E 139°46'0 0.1
2017-Jan-16 23:33N 35°38' E 139°46'8 8.0
2017-Jan-16 22:33N 35°33' E 139°54'0 0.0
2017-Jan-16 21:31N 35°33' E 139°54'0 0.0
2017-Jan-16 20:31N 35°33' E 139°54'0 0.0
2017-Jan-16 19:31N 35°33' E 139°54'1 1.4
2017-Jan-16 18:34N 35°32' E 139°54'1515.2
2017-Jan-16 17:34N 35°19' E 139°44'1413.9
2017-Jan-16 16:33N 35°05' E 139°44'7 0.2
2017-Jan-15 08:27N 35°03' E 139°37'1516.4
2017-Jan-15 07:34N 35°15' E 139°46'1312.8
2017-Jan-15 06:34N 35°28' E 139°48'1010.4
2017-Jan-15 05:33N 35°38' E 139°46'0 0.0
2017-Jan-15 04:32N 35°38' E 139°46'0 0.0
2017-Jan-15 03:32N 35°38' E 139°46'0 0.0
2017-Jan-15 02:32N 35°38' E 139°46'0 0.0
2017-Jan-15 01:32N 35°38' E 139°46'0 0.0
2017-Jan-15 00:29N 35°38' E 139°46'0 0.1
2017-Jan-14 23:34N 35°38' E 139°46'1211.9
2017-Jan-14 22:34N 35°26' E 139°49'1211.6
2017-Jan-14 21:33N 35°15' E 139°47'  
Track history (hours):
 
Tides and Currents Weather Stations Pressure Air Temp Water Temp Dewpoint Dewpoint Depression Visibility Wind Speed Wind Dir Waves Ship Positions

Kamikawa Maru

Last reported at 2017-Jan-22 08:32 UTC. Time now 2017-Jan-23 14:55 UTC.
Position N 35°03' E 139°39'.

Length 162 m; draft 6.8 m.

Type: Cargo ship. MMSI: 431101012.

Date/timePositionNaut miles runAvg speedWind from/ knotsBaromVisibWave heightAir tempDewpointWater temp
2017-Jan-22 08:32N 35°03' E 139°39'1414.9
2017-Jan-22 07:34N 35°16' E 139°45'1313.4
2017-Jan-22 06:34N 35°29' E 139°50'10 8.5
2017-Jan-22 05:25N 35°38' E 139°46'0 0.0
2017-Jan-22 04:31N 35°38' E 139°46'0 0.0
2017-Jan-22 03:31N 35°38' E 139°46'0 0.0
2017-Jan-22 02:28N 35°38' E 139°46'0 0.0
2017-Jan-22 01:28N 35°38' E 139°46'0 0.0
2017-Jan-22 00:25N 35°38' E 139°46'0 0.0
2017-Jan-21 23:33N 35°38' E 139°46'1211.9
2017-Jan-21 22:33N 35°26' E 139°49'1211.8
2017-Jan-21 21:33N 35°15' E 139°47'  
2017-Jan-17 11:31N 35°00' E 139°42'1616.6
2017-Jan-17 10:33N 35°16' E 139°45'1313.3
2017-Jan-17 09:33N 35°29' E 139°51'10 9.7
2017-Jan-17 08:31N 35°38' E 139°46'0 0.0
2017-Jan-17 07:25N 35°38' E 139°46'0 0.1
2017-Jan-17 06:31N 35°38' E 139°46'0 0.0
2017-Jan-17 05:28N 35°38' E 139°46'0 0.0
2017-Jan-17 04:22N 35°38' E 139°46'0 0.0
2017-Jan-17 03:31N 35°38' E 139°46'0 0.0
2017-Jan-17 02:31N 35°38' E 139°46'0 0.0
2017-Jan-17 01:31N 35°38' E 139°46'0 0.0
2017-Jan-17 00:28N 35°38' E 139°46'0 0.1
2017-Jan-16 23:33N 35°38' E 139°46'8 8.0
2017-Jan-16 22:33N 35°33' E 139°54'0 0.0
2017-Jan-16 21:31N 35°33' E 139°54'0 0.0
2017-Jan-16 20:31N 35°33' E 139°54'0 0.0
2017-Jan-16 19:31N 35°33' E 139°54'1 1.4
2017-Jan-16 18:34N 35°32' E 139°54'1515.2
2017-Jan-16 17:34N 35°19' E 139°44'1413.9
2017-Jan-16 16:33N 35°05' E 139°44'7 0.2
2017-Jan-15 08:27N 35°03' E 139°37'1516.4
2017-Jan-15 07:34N 35°15' E 139°46'1312.8
2017-Jan-15 06:34N 35°28' E 139°48'1010.4
2017-Jan-15 05:33N 35°38' E 139°46'0 0.0
2017-Jan-15 04:32N 35°38' E 139°46'0 0.0
2017-Jan-15 03:32N 35°38' E 139°46'0 0.0
2017-Jan-15 02:32N 35°38' E 139°46'0 0.0
2017-Jan-15 01:32N 35°38' E 139°46'0 0.0
2017-Jan-15 00:29N 35°38' E 139°46'0 0.1
2017-Jan-14 23:34N 35°38' E 139°46'1211.9
2017-Jan-14 22:34N 35°26' E 139°49'1211.6
2017-Jan-14 21:33N 35°15' E 139°47'  

Dump ship's entire track history